SIA52 EGCC-KIAH
Flight info
| Callsign | SIA52 |
|---|---|
| Flight time | N/A |
| Altitude | 38000 |
| Route | EKLAD Y53 WAL L10 PENIL M144 BAGSO DCT CRK/M085F380 DCT OMOKO DCT 48N015W 48N020W 47N030W 45N040W 43N050W 42N060W DCT DOVEY/N0489F380 DCT SAILE DCT ACK Q430 BYRDD J48 CSN DCT FANPO Q40 AEX DOOBI3 |
| Aircraft | A359/H-SDE2E3GHIJ3J4J5LM1ORWXY/LB1D1 |
Departure
| Time | N/A |
|---|---|
| Airport | Manchester Airport (EGCC) |
Arrival
| Time | 2025-09-07 03:56 |
|---|---|
| Airport | George Bush Intercontinental Airport (KIAH) |
| Time | Latitude | Longitude | Altitude | Speed | Heading |
|---|---|---|---|---|---|
| 2025-09-07 02:05 | 36.35302 | -82.35623 | 38128 ft | 437 kts | 237° |
| 2025-09-07 02:06 | 36.23754 | -82.57655 | 38104 ft | 438 kts | 237° |
| 2025-09-07 02:09 | 36.08727 | -82.86103 | 38129 ft | 437 kts | 237° |
| 2025-09-07 02:10 | 35.96984 | -83.08175 | 39161 ft | 439 kts | 236° |
| 2025-09-07 02:12 | 35.84046 | -83.33553 | 40076 ft | 437 kts | 239° |
| 2025-09-07 02:14 | 35.71821 | -83.58047 | 40119 ft | 437 kts | 237° |
| 2025-09-07 02:16 | 35.58313 | -83.82867 | 40077 ft | 437 kts | 236° |
| 2025-09-07 02:18 | 35.44722 | -84.07776 | 40095 ft | 439 kts | 237° |
| 2025-09-07 02:20 | 35.31070 | -84.32620 | 40082 ft | 441 kts | 237° |
| 2025-09-07 02:22 | 35.17286 | -84.57529 | 40102 ft | 442 kts | 237° |
| 2025-09-07 02:24 | 35.03462 | -84.82344 | 40088 ft | 443 kts | 237° |
| 2025-09-07 02:26 | 34.89363 | -85.07465 | 40117 ft | 457 kts | 237° |
| 2025-09-07 02:29 | 34.73071 | -85.36254 | 40090 ft | 460 kts | 236° |
| 2025-09-07 02:30 | 34.60301 | -85.58652 | 40088 ft | 462 kts | 237° |
| 2025-09-07 02:33 | 34.43786 | -85.87423 | 40086 ft | 462 kts | 237° |
| 2025-09-07 02:35 | 34.29000 | -86.12979 | 40093 ft | 464 kts | 236° |
| 2025-09-07 02:36 | 34.15969 | -86.35340 | 40120 ft | 465 kts | 237° |
| 2025-09-07 02:38 | 34.00987 | -86.60908 | 40102 ft | 467 kts | 237° |
| 2025-09-07 02:41 | 33.84026 | -86.89678 | 40100 ft | 469 kts | 237° |
| 2025-09-07 02:42 | 33.70794 | -87.11956 | 40103 ft | 468 kts | 237° |
| 2025-09-07 02:45 | 33.53713 | -87.40511 | 40094 ft | 468 kts | 237° |
| 2025-09-07 02:46 | 33.40439 | -87.62682 | 40102 ft | 466 kts | 241° |
| 2025-09-07 02:49 | 33.26926 | -87.93411 | 40098 ft | 463 kts | 245° |
| 2025-09-07 02:50 | 33.16492 | -88.17281 | 40102 ft | 462 kts | 245° |
| 2025-09-07 02:53 | 33.03062 | -88.47774 | 40067 ft | 462 kts | 246° |
| 2025-09-07 02:54 | 32.92598 | -88.71355 | 40103 ft | 460 kts | 246° |
| 2025-09-07 02:57 | 32.79089 | -89.01566 | 40105 ft | 458 kts | 246° |
| 2025-09-07 02:58 | 32.69067 | -89.23819 | 40088 ft | 458 kts | 246° |
| 2025-09-07 03:01 | 32.56207 | -89.53991 | 40020 ft | 454 kts | 249° |
| 2025-09-07 03:03 | 32.45206 | -89.80964 | 40068 ft | 454 kts | 249° |
| 2025-09-07 03:05 | 32.34140 | -90.07841 | 40120 ft | 453 kts | 249° |
| 2025-09-07 03:06 | 32.24417 | -90.31296 | 40146 ft | 454 kts | 249° |
| 2025-09-07 03:08 | 32.13286 | -90.57953 | 40127 ft | 453 kts | 249° |
| 2025-09-07 03:10 | 32.02068 | -90.84623 | 40130 ft | 454 kts | 249° |
| 2025-09-07 03:12 | 31.90806 | -91.11196 | 40133 ft | 454 kts | 249° |
| 2025-09-07 03:14 | 31.78843 | -91.37452 | 40109 ft | 456 kts | 247° |
| 2025-09-07 03:16 | 31.66799 | -91.63252 | 40122 ft | 444 kts | 246° |
| 2025-09-07 03:18 | 31.55121 | -91.88695 | 40113 ft | 442 kts | 248° |
| 2025-09-07 03:21 | 31.42339 | -92.17535 | 40123 ft | 445 kts | 248° |
| 2025-09-07 03:22 | 31.32324 | -92.39953 | 40127 ft | 444 kts | 248° |
| 2025-09-07 03:25 | 31.19387 | -92.68713 | 40127 ft | 445 kts | 248° |
| 2025-09-07 03:26 | 31.09262 | -92.91069 | 39478 ft | 445 kts | 248° |
| 2025-09-07 03:29 | 30.96176 | -93.19767 | 37090 ft | 442 kts | 248° |
| 2025-09-07 03:30 | 30.86396 | -93.41079 | 32386 ft | 442 kts | 247° |
| 2025-09-07 03:32 | 30.74798 | -93.66190 | 27266 ft | 423 kts | 246° |
| 2025-09-07 03:34 | 30.66468 | -93.84140 | 24183 ft | 428 kts | 245° |
| 2025-09-07 03:34 | 30.63597 | -93.90307 | 24092 ft | 435 kts | 245° |
| 2025-09-07 03:35 | 30.59263 | -93.99587 | 24089 ft | 435 kts | 245° |
| 2025-09-07 03:36 | 30.56395 | -94.05718 | 24059 ft | 434 kts | 245° |
| 2025-09-07 03:36 | 30.53594 | -94.11688 | 22317 ft | 420 kts | 244° |
| 2025-09-07 03:36 | 30.52173 | -94.14725 | 21014 ft | 432 kts | 244° |
| 2025-09-07 03:37 | 30.48037 | -94.23514 | 19109 ft | 374 kts | 244° |
| 2025-09-07 03:37 | 30.46832 | -94.26068 | 18874 ft | 347 kts | 244° |
| 2025-09-07 03:38 | 30.44663 | -94.30671 | 18185 ft | 311 kts | 244° |
| 2025-09-07 03:39 | 30.41528 | -94.37334 | 15456 ft | 313 kts | 243° |
| 2025-09-07 03:39 | 30.39189 | -94.41305 | 14802 ft | 289 kts | 226° |
| 2025-09-07 03:40 | 30.36500 | -94.43952 | 14335 ft | 314 kts | 221° |
| 2025-09-07 03:40 | 30.32542 | -94.47685 | 13590 ft | 312 kts | 221° |
| 2025-09-07 03:40 | 30.31431 | -94.48737 | 13392 ft | 311 kts | 221° |
| 2025-09-07 03:41 | 30.28099 | -94.51903 | 12793 ft | 308 kts | 221° |
| 2025-09-07 03:41 | 30.24853 | -94.54987 | 12342 ft | 293 kts | 221° |
| 2025-09-07 03:42 | 30.21781 | -94.57906 | 11849 ft | 280 kts | 221° |
| 2025-09-07 03:42 | 30.18726 | -94.60695 | 11158 ft | 281 kts | 219° |
| 2025-09-07 03:43 | 30.14218 | -94.64708 | 10428 ft | 263 kts | 219° |
| 2025-09-07 03:44 | 30.11373 | -94.67239 | 9953 ft | 253 kts | 219° |
| 2025-09-07 03:44 | 30.09993 | -94.68468 | 9707 ft | 249 kts | 219° |
| 2025-09-07 03:45 | 30.06222 | -94.72426 | 8741 ft | 243 kts | 231° |
| 2025-09-07 03:45 | 30.04053 | -94.75444 | 8071 ft | 242 kts | 231° |
| 2025-09-07 03:46 | 30.01931 | -94.78435 | 7415 ft | 242 kts | 231° |
| 2025-09-07 03:46 | 29.99843 | -94.81499 | 6734 ft | 242 kts | 234° |
| 2025-09-07 03:46 | 29.99220 | -94.83288 | 6382 ft | 242 kts | 263° |
| 2025-09-07 03:47 | 29.98259 | -94.88929 | 5298 ft | 242 kts | 278° |
| 2025-09-07 03:48 | 29.99260 | -94.92608 | 4968 ft | 240 kts | 291° |
| 2025-09-07 03:48 | 30.00377 | -94.96245 | 4971 ft | 241 kts | 285° |
| 2025-09-07 03:48 | 30.00641 | -94.98151 | 4976 ft | 241 kts | 274° |
| 2025-09-07 03:49 | 30.00676 | -95.03634 | 4931 ft | 211 kts | 270° |
| 2025-09-07 03:49 | 30.00706 | -95.05316 | 4732 ft | 210 kts | 271° |
| 2025-09-07 03:50 | 30.00714 | -95.08689 | 4162 ft | 209 kts | 269° |
| 2025-09-07 03:50 | 30.00716 | -95.12015 | 3539 ft | 205 kts | 270° |
| 2025-09-07 03:51 | 30.00717 | -95.16622 | 2779 ft | 174 kts | 270° |
| 2025-09-07 03:53 | 30.00716 | -95.24042 | 1596 ft | 146 kts | 271° |
| 2025-09-07 03:53 | 30.00715 | -95.27527 | 1043 ft | 144 kts | 272° |
| 2025-09-07 03:54 | 30.00723 | -95.29822 | 685 ft | 139 kts | 271° |
| 2025-09-07 03:54 | 30.00722 | -95.32018 | 308 ft | 135 kts | 271° |
| 2025-09-07 03:55 | 30.00717 | -95.34563 | 113 ft | 26 kts | 270° |
| 2025-09-07 03:56 | 30.00672 | -95.35410 | 108 ft | 28 kts | 246° |
| 2025-09-07 03:57 | 30.00553 | -95.35705 | 113 ft | 18 kts | 265° |
| 2025-09-07 03:57 | 30.00550 | -95.35830 | 111 ft | 9 kts | 256° |
| 2025-09-07 03:57 | 30.00409 | -95.35850 | 111 ft | 14 kts | 152° |
| 2025-09-07 03:58 | 30.00238 | -95.35663 | 110 ft | 20 kts | 135° |
| 2025-09-07 03:58 | 29.99979 | -95.35488 | 112 ft | 24 kts | 175° |
| 2025-09-07 03:59 | 29.99430 | -95.35485 | 112 ft | 28 kts | 180° |
| 2025-09-07 04:00 | 29.99090 | -95.35376 | 110 ft | 13 kts | 91° |
| 2025-09-07 04:00 | 29.99091 | -95.35259 | 110 ft | 16 kts | 90° |
| 2025-09-07 04:01 | 29.99087 | -95.34942 | 111 ft | 23 kts | 93° |
| 2025-09-07 04:01 | 29.99085 | -95.34535 | 110 ft | 28 kts | 90° |
| 2025-09-07 04:02 | 29.99088 | -95.34089 | 110 ft | 21 kts | 89° |
| 2025-09-07 04:03 | 29.99013 | -95.33647 | 112 ft | 13 kts | 177° |
| 2025-09-07 04:04 | 29.98919 | -95.33499 | 110 ft | 16 kts | 91° |
| 2025-09-07 04:05 | 29.98868 | -95.33307 | 112 ft | 8 kts | 178° |
| 2025-09-07 04:05 | 29.98841 | -95.33306 | 110 ft | 0 kts | 179° |